Time;durP1;ratioP1;P1;durP2;ratioP2;P2;SDS_P1;SDS_P2;PMS_P1;PMS_P2;Temp;Humidity;BMP_temperature;BMP_pressure;BME280_temperature;BME280_humidity;BME280_pressure;Samples;Min_cycle;Max_cycle;Signal;HPM_P1;HPM_P2
2023/12/11 00:00:46;;;;;;;;;;;;;;;;;;4981460;28;20554;-74
2023/12/11 00:03:12;;;;;;;19.65;10.13;;;;;;;;;;4977739;28;19917;-74
2023/12/11 00:05:38;;;;;;;;;;;;;;;;;;4982198;28;20816;-72
2023/12/11 00:08:05;;;;;;;15.98;9.20;;;;;;;;;;4980088;28;19913;-72
2023/12/11 00:10:31;;;;;;;16.10;8.65;;;;;;;;;;4983977;28;20014;-71
2023/12/11 00:12:57;;;;;;;;;;;;;;;;;;4983255;28;20022;-72
2023/12/11 00:15:23;;;;;;;16.25;8.95;;;;;;;;;;4978781;28;19913;-74
2023/12/11 00:17:49;;;;;;;13.77;7.93;;;;;;;;;;4980874;28;20030;-72
2023/12/11 00:20:15;;;;;;;;;;;;;;;;;;4980502;28;20042;-72
2023/12/11 00:22:41;;;;;;;14.82;7.53;;;;;;;;;;4984966;28;19925;-71
2023/12/11 00:25:08;;;;;;;13.57;6.30;;;;;;;;;;4980638;28;20480;-72
2023/12/11 00:27:34;;;;;;;;;;;;;;;;;;4982328;28;20034;-71
2023/12/11 00:30:00;;;;;;;14.52;5.90;;;;;;;;;;4982049;28;19971;-73
2023/12/11 00:32:26;;;;;;;12.43;6.40;;;;;;;;;;4985485;28;20053;-72
2023/12/11 00:34:52;;;;;;;12.38;7.43;;;;;;;;;;4985469;28;20057;-72
2023/12/11 00:37:18;;;;;;;;;;;;;;;;;;4981169;28;20030;-72
2023/12/11 00:39:45;;;;;;;14.93;7.07;;;;;;;;;;4981603;28;20396;-71
2023/12/11 00:42:11;;;;;;;13.65;7.18;;;;;;;;;;4975112;28;20113;-72
2023/12/11 00:44:37;;;;;;;;;;;;;;;;;;4982105;28;20582;-72
2023/12/11 00:47:04;;;;;;;14.73;7.30;;;;;;;;;;4977070;28;19945;-73
2023/12/11 00:49:30;;;;;;;13.82;7.28;;;;;;;;;;4984896;28;20022;-73
2023/12/11 00:51:56;;;;;;;13.18;6.72;;;;;;;;;;4988074;28;20046;-73
2023/12/11 00:54:22;;;;;;;14.95;7.22;;;;;;;;;;4988143;28;20113;-74
2023/12/11 00:56:49;;;;;;;16.05;8.00;;;;;;;;;;4985633;28;20503;-74
2023/12/11 00:59:15;;;;;;;;;;;;;;;;;;4987421;28;20038;-72
2023/12/11 01:01:41;;;;;;;15.68;7.40;;;;;;;;;;4988663;28;19924;-72
2023/12/11 01:04:08;;;;;;;15.55;7.10;;;;;;;;;;4983937;28;20034;-73
2023/12/11 01:06:34;;;;;;;12.95;7.20;;;;;;;;;;4987592;28;20033;-73
2023/12/11 01:09:00;;;;;;;16.40;6.15;;;;;;;;;;4986057;28;20084;-72
2023/12/11 01:11:26;;;;;;;;;;;;;;;;;;4988427;28;20030;-72
2023/12/11 01:13:52;;;;;;;15.77;7.72;;;;;;;;;;4984667;28;19914;-72
2023/12/11 01:16:19;;;;;;;12.27;6.85;;;;;;;;;;4984921;28;20110;-72
2023/12/11 01:18:45;;;;;;;12.98;6.35;;;;;;;;;;4985789;28;20088;-72
2023/12/11 01:21:11;;;;;;;13.73;7.22;;;;;;;;;;4986356;28;20041;-71
2023/12/11 01:23:37;;;;;;;13.68;7.45;;;;;;;;;;4987440;28;20054;-72
2023/12/11 01:26:03;;;;;;;13.80;7.28;;;;;;;;;;4984248;28;20057;-73
2023/12/11 01:28:30;;;;;;;13.80;6.63;;;;;;;;;;4990577;28;20026;-73
2023/12/11 01:30:56;;;;;;;12.48;7.25;;;;;;;;;;4983163;28;20030;-73
2023/12/11 01:33:22;;;;;;;12.35;6.03;;;;;;;;;;4982046;28;20054;-73
2023/12/11 01:35:48;;;;;;;14.00;7.60;;;;;;;;;;4985726;28;20057;-72
2023/12/11 01:38:14;;;;;;;;;;;;;;;;;;4979978;28;20034;-71
2023/12/11 01:40:40;;;;;;;13.18;5.90;;;;;;;;;;4985838;28;19913;-73
2023/12/11 01:43:16;;;;;;;14.02;5.20;;;;;;;;;;4984287;28;20038;-72
2023/12/11 01:45:43;;;;;;;11.50;4.93;;;;;;;;;;4981914;28;20026;-74
2023/12/11 01:48:09;;;;;;;;;;;;;;;;;;4982380;28;20033;-73
2023/12/11 01:50:35;;;;;;;10.90;5.50;;;;;;;;;;4985061;28;19929;-72
2023/12/11 01:53:02;;;;;;;12.35;5.30;;;;;;;;;;4978853;28;20033;-72
2023/12/11 01:55:28;;;;;;;;;;;;;;;;;;4987938;28;20115;-73
2023/12/11 01:57:54;;;;;;;11.63;4.93;;;;;;;;;;5013683;28;19917;-73
2023/12/11 02:00:20;;;;;;;14.52;5.05;;;;;;;;;;4983465;28;20603;-73
2023/12/11 02:02:46;;;;;;;14.00;5.72;;;;;;;;;;4980862;28;20113;-72
2023/12/11 02:05:12;;;;;;;13.82;5.60;;;;;;;;;;4977287;28;20030;-72
2023/12/11 02:07:39;;;;;;;12.80;4.60;;;;;;;;;;4983065;28;20546;-72
2023/12/11 02:10:05;;;;;;;;;;;;;;;;;;4982552;28;20783;-73
2023/12/11 02:12:31;;;;;;;11.98;4.97;;;;;;;;;;4986748;28;19913;-72
2023/12/11 02:14:57;;;;;;;13.80;5.13;;;;;;;;;;4986740;28;20034;-72
2023/12/11 02:17:23;;;;;;;;;;;;;;;;;;4987046;28;20033;-73
2023/12/11 02:19:49;;;;;;;12.65;4.40;;;;;;;;;;4985098;28;19920;-73
2023/12/11 02:22:15;;;;;;;15.23;4.22;;;;;;;;;;4978238;28;20597;-73
2023/12/11 02:24:49;;;;;;;11.48;4.65;;;;;;;;;;4984161;28;20133;-72
2023/12/11 02:27:15;;;;;;;10.18;3.92;;;;;;;;;;4984740;28;20037;-72
2023/12/11 02:29:41;;;;;;;;;;;;;;;;;;4985537;28;20032;-72
2023/12/11 02:32:07;;;;;;;12.90;3.78;;;;;;;;;;4983754;28;19913;-72
2023/12/11 02:34:34;;;;;;;10.52;3.42;;;;;;;;;;4988585;28;20030;-73
2023/12/11 02:37:00;;;;;;;;;;;;;;;;;;4979045;28;20055;-73
2023/12/11 02:39:26;;;;;;;9.35;3.00;;;;;;;;;;4984853;28;20683;-73
2023/12/11 02:41:52;;;;;;;10.95;2.88;;;;;;;;;;4986871;28;20053;-73
2023/12/11 02:44:18;;;;;;;11.32;2.97;;;;;;;;;;4983746;28;20977;-73
2023/12/11 02:46:44;;;;;;;10.65;3.50;;;;;;;;;;4984371;28;20052;-74
2023/12/11 02:49:10;;;;;;;9.27;2.80;;;;;;;;;;4978910;28;20528;-73
2023/12/11 02:51:36;;;;;;;8.57;2.85;;;;;;;;;;4982877;28;20105;-72
2023/12/11 02:54:02;;;;;;;11.65;3.05;;;;;;;;;;4985835;28;20040;-73
2023/12/11 02:56:29;;;;;;;11.38;3.13;;;;;;;;;;4985637;28;20046;-73
2023/12/11 02:58:55;;;;;;;;;;;;;;;;;;4989279;28;20038;-72
2023/12/11 03:01:21;;;;;;;9.82;2.58;;;;;;;;;;4982712;28;20677;-72
2023/12/11 03:03:47;;;;;;;10.00;2.50;;;;;;;;;;4985704;28;20036;-72
2023/12/11 03:06:22;;;;;;;9.80;2.92;;;;;;;;;;4983077;28;20025;-72
2023/12/11 03:08:48;;;;;;;10.88;2.90;;;;;;;;;;4982253;28;20060;-72
2023/12/11 03:11:14;;;;;;;14.63;3.22;;;;;;;;;;4979267;28;20038;-73
2023/12/11 03:13:40;;;;;;;;;;;;;;;;;;4985657;28;21040;-74
2023/12/11 03:16:07;;;;;;;12.93;3.00;;;;;;;;;;4993477;28;20767;-73
2023/12/11 03:18:32;;;;;;;;;;;;;;;;;;4982323;28;20034;-72
2023/12/11 03:20:59;;;;;;;11.23;2.90;;;;;;;;;;4983092;28;20408;-72
2023/12/11 03:23:25;;;;;;;11.02;2.75;;;;;;;;;;4983113;28;20064;-72
2023/12/11 03:25:51;;;;;;;12.98;2.78;;;;;;;;;;4984633;28;20028;-72
2023/12/11 03:28:17;;;;;;;14.55;3.60;;;;;;;;;;4987225;28;20510;-72
2023/12/11 03:30:43;;;;;;;12.73;3.05;;;;;;;;;;4980028;28;20049;-72
2023/12/11 03:33:09;;;;;;;13.88;3.17;;;;;;;;;;4982640;28;20618;-72
2023/12/11 03:35:35;;;;;;;12.63;3.22;;;;;;;;;;4983055;28;20120;-72
2023/12/11 03:38:02;;;;;;;12.32;3.15;;;;;;;;;;4984927;28;20374;-72
2023/12/11 03:40:28;;;;;;;11.65;3.00;;;;;;;;;;4984681;28;20037;-72
2023/12/11 03:42:54;;;;;;;12.98;3.33;;;;;;;;;;4981996;28;20042;-71
2023/12/11 03:45:20;;;;;;;;;;;;;;;;;;4976921;28;20532;-72
2023/12/11 03:47:46;;;;;;;14.48;3.50;;;;;;;;;;4986157;28;19923;-71
2023/12/11 03:50:12;;;;;;;16.50;3.60;;;;;;;;;;4980438;28;20030;-71
2023/12/11 03:52:38;;;;;;;;;;;;;;;;;;4982203;28;20355;-72
2023/12/11 03:55:05;;;;;;;15.23;4.90;;;;;;;;;;4980228;28;19976;-71
2023/12/11 03:57:31;;;;;;;16.27;4.18;;;;;;;;;;4984435;28;20117;-72
2023/12/11 03:59:57;;;;;;;15.05;4.05;;;;;;;;;;4981210;28;20049;-72
2023/12/11 04:02:23;;;;;;;17.25;4.35;;;;;;;;;;4982439;28;20034;-72
2023/12/11 04:04:50;;;;;;;14.60;4.13;;;;;;;;;;4983280;28;20034;-73
2023/12/11 04:07:16;;;;;;;14.23;4.05;;;;;;;;;;4981658;28;20204;-73
2023/12/11 04:09:42;;;;;;;19.75;4.90;;;;;;;;;;4984014;28;20061;-73
2023/12/11 04:12:08;;;;;;;22.05;4.50;;;;;;;;;;4979795;28;20060;-73
2023/12/11 04:14:34;;;;;;;20.33;4.38;;;;;;;;;;4988275;28;20121;-73
2023/12/11 04:17:01;;;;;;;18.00;4.28;;;;;;;;;;4980103;28;20025;-71
2023/12/11 04:19:27;;;;;;;15.82;4.57;;;;;;;;;;4985030;28;20732;-72
2023/12/11 04:21:54;;;;;;;15.30;4.53;;;;;;;;;;4985678;28;20073;-72
2023/12/11 04:24:20;;;;;;;16.13;4.53;;;;;;;;;;4984552;28;20061;-72
2023/12/11 04:26:46;;;;;;;19.42;5.35;;;;;;;;;;4987633;28;20041;-71
2023/12/11 04:29:13;;;;;;;18.73;4.63;;;;;;;;;;4982238;28;20033;-72
2023/12/11 04:31:39;;;;;;;16.38;5.18;;;;;;;;;;4986285;28;20072;-71
2023/12/11 04:34:05;;;;;;;19.17;5.65;;;;;;;;;;4986581;28;20038;-71
2023/12/11 04:36:31;;;;;;;;;;;;;;;;;;4987480;28;20045;-72
2023/12/11 04:38:57;;;;;;;20.27;6.30;;;;;;;;;;4984994;28;19913;-73
2023/12/11 04:41:23;;;;;;;18.17;5.53;;;;;;;;;;4982574;28;20037;-72
2023/12/11 04:43:50;;;;;;;19.85;6.00;;;;;;;;;;4984951;28;21422;-73
2023/12/11 04:46:16;;;;;;;18.17;6.35;;;;;;;;;;4983910;28;20510;-73
2023/12/11 04:48:42;;;;;;;20.45;6.20;;;;;;;;;;4990627;28;20060;-73
2023/12/11 04:51:09;;;;;;;23.10;6.32;;;;;;;;;;4985712;28;20030;-73
2023/12/11 04:53:35;;;;;;;21.25;7.47;;;;;;;;;;4986627;28;20033;-73
2023/12/11 04:56:08;;;;;;;19.02;6.63;;;;;;;;;;4982644;28;20061;-73
2023/12/11 04:58:34;;;;;;;18.48;7.35;;;;;;;;;;4991135;28;20124;-72
2023/12/11 05:01:00;;;;;;;20.05;6.80;;;;;;;;;;4985950;28;20030;-71
2023/12/11 05:03:27;;;;;;;18.75;7.55;;;;;;;;;;4987448;28;20116;-73
2023/12/11 05:05:53;;;;;;;19.85;7.10;;;;;;;;;;4985639;28;20089;-72
2023/12/11 05:08:19;;;;;;;19.33;7.32;;;;;;;;;;4989948;28;20546;-73
2023/12/11 05:10:45;;;;;;;20.95;7.70;;;;;;;;;;4984700;28;20026;-71
2023/12/11 05:13:11;;;;;;;21.45;8.48;;;;;;;;;;4985310;28;20776;-72
2023/12/11 05:15:37;;;;;;;20.30;8.30;;;;;;;;;;4984505;28;20109;-72
2023/12/11 05:18:03;;;;;;;25.25;8.55;;;;;;;;;;4982638;28;20042;-72
2023/12/11 05:20:29;;;;;;;;;;;;;;;;;;4982941;28;20038;-72
2023/12/11 05:22:56;;;;;;;30.45;9.85;;;;;;;;;;4982397;28;19917;-71
2023/12/11 05:25:22;;;;;;;26.85;9.57;;;;;;;;;;4983137;28;20121;-72
2023/12/11 05:27:48;;;;;;;21.50;9.05;;;;;;;;;;4985879;28;20026;-72
2023/12/11 05:30:14;;;;;;;22.63;9.13;;;;;;;;;;4984394;28;20034;-72
2023/12/11 05:32:41;;;;;;;;;;;;;;;;;;4988115;28;20030;-72
2023/12/11 05:35:07;;;;;;;19.98;9.23;;;;;;;;;;4984154;28;19913;-72
2023/12/11 05:37:33;;;;;;;;;;;;;;;;;;4987429;28;20061;-72
2023/12/11 05:39:59;;;;;;;29.40;10.70;;;;;;;;;;4982879;28;20012;-72
2023/12/11 05:42:25;;;;;;;;;;;;;;;;;;4985075;28;20037;-72
2023/12/11 05:44:51;;;;;;;27.15;11.10;;;;;;;;;;4985663;28;19913;-72
2023/12/11 05:47:17;;;;;;;44.65;10.10;;;;;;;;;;4983054;28;20026;-73
2023/12/11 05:49:43;;;;;;;30.40;10.65;;;;;;;;;;4988918;28;20051;-72
2023/12/11 05:52:10;;;;;;;32.47;11.57;;;;;;;;;;4982308;28;20037;-73
2023/12/11 05:54:36;;;;;;;21.10;10.50;;;;;;;;;;4986567;28;20194;-73
2023/12/11 05:57:02;;;;;;;;;;;;;;;;;;4979766;28;20038;-72
2023/12/11 05:59:28;;;;;;;21.67;11.65;;;;;;;;;;4984846;28;19913;-73
2023/12/11 06:01:54;;;;;;;;;;;;;;;;;;4982054;28;20075;-72
2023/12/11 06:04:20;;;;;;;23.10;11.55;;;;;;;;;;4984955;28;19914;-74
2023/12/11 06:06:47;;;;;;;22.80;11.07;;;;;;;;;;4984536;28;20142;-72
2023/12/11 06:09:13;;;;;;;22.58;10.77;;;;;;;;;;4981752;28;20094;-74
2023/12/11 06:11:40;;;;;;;21.42;10.93;;;;;;;;;;4983624;28;20089;-73
2023/12/11 06:14:06;;;;;;;21.67;10.35;;;;;;;;;;4982202;28;20034;-73
2023/12/11 06:16:32;;;;;;;18.85;9.18;;;;;;;;;;4987818;28;20040;-73
2023/12/11 06:18:58;;;;;;;20.30;9.63;;;;;;;;;;4979282;28;20445;-74
2023/12/11 06:21:25;;;;;;;22.42;9.90;;;;;;;;;;4985946;28;20034;-71
2023/12/11 06:23:51;;;;;;;;;;;;;;;;;;4985892;28;20026;-72
2023/12/11 06:26:30;;;;;;;22.02;9.57;;;;;;;;;;4982171;28;20109;-72
2023/12/11 06:28:59;;;;;;;22.27;9.00;;;;;;;;;;4986227;28;20037;-71
2023/12/11 06:31:25;;;;;;;19.77;9.50;;;;;;;;;;4984793;28;20028;-74
2023/12/11 06:33:51;;;;;;;19.88;9.00;;;;;;;;;;4985355;28;20072;-71
2023/12/11 06:36:17;;;;;;;17.08;7.68;;;;;;;;;;4981981;28;20022;-72
2023/12/11 06:38:43;;;;;;;20.30;8.63;;;;;;;;;;4987800;28;20049;-71
2023/12/11 06:41:10;;;;;;;19.40;8.07;;;;;;;;;;4985176;28;20025;-72
2023/12/11 06:43:36;;;;;;;;;;;;;;;;;;4983889;28;20145;-72
2023/12/11 06:46:02;;;;;;;19.73;8.05;;;;;;;;;;4985520;28;19914;-71
2023/12/11 06:48:29;;;;;;;20.75;7.82;;;;;;;;;;4980666;28;20030;-73
2023/12/11 06:50:56;;;;;;;21.38;7.10;;;;;;;;;;4981724;28;20036;-74
2023/12/11 06:53:22;;;;;;;19.80;7.25;;;;;;;;;;4979289;28;20212;-72
2023/12/11 06:55:48;;;;;;;;;;;;;;;;;;4984808;28;20069;-74
2023/12/11 06:58:15;;;;;;;17.63;6.25;;;;;;;;;;4976205;28;20387;-72
2023/12/11 07:00:41;;;;;;;18.63;6.07;;;;;;;;;;4985366;28;20026;-72
2023/12/11 07:03:07;;;;;;;18.33;5.75;;;;;;;;;;4980555;28;20037;-72
2023/12/11 07:05:33;;;;;;;17.23;6.53;;;;;;;;;;4978689;28;20199;-71
2023/12/11 07:07:59;;;;;;;;;;;;;;;;;;4977504;28;20052;-71
2023/12/11 07:10:25;;;;;;;19.17;6.60;;;;;;;;;;4986872;28;20016;-72
2023/12/11 07:12:52;;;;;;;20.75;6.57;;;;;;;;;;4983695;28;20165;-72
2023/12/11 07:15:19;;;;;;;17.40;6.13;;;;;;;;;;4980361;28;21419;-72
2023/12/11 07:17:45;;;;;;;14.40;6.75;;;;;;;;;;4981629;28;20087;-74
2023/12/11 07:20:12;;;;;;;;;;;;;;;;;;4979665;28;20504;-72
2023/12/11 07:22:38;;;;;;;19.10;5.93;;;;;;;;;;4985759;28;19921;-72
2023/12/11 07:25:04;;;;;;;;;;;;;;;;;;4981978;28;20061;-72
2023/12/11 07:27:33;;;;;;;14.70;5.03;;;;;;;;;;4984943;28;19913;-72
2023/12/11 07:29:59;;;;;;;18.17;5.15;;;;;;;;;;4982508;28;20049;-72
2023/12/11 07:32:25;;;;;;;;;;;;;;;;;;4984524;28;20084;-73
2023/12/11 07:34:51;;;;;;;15.18;6.00;;;;;;;;;;4982615;28;19909;-72
2023/12/11 07:37:17;;;;;;;17.92;5.45;;;;;;;;;;4981826;28;20040;-72
2023/12/11 07:39:43;;;;;;;18.85;5.72;;;;;;;;;;4985785;28;20045;-71
2023/12/11 07:42:09;;;;;;;;;;;;;;;;;;4979536;28;20030;-73
2023/12/11 07:44:36;;;;;;;14.80;5.00;;;;;;;;;;4979849;28;19913;-72
2023/12/11 07:47:02;;;;;;;;;;;;;;;;;;4977631;28;20030;-72
2023/12/11 07:49:28;;;;;;;14.55;5.63;;;;;;;;;;4983204;28;19913;-72
2023/12/11 07:51:54;;;;;;;14.27;5.05;;;;;;;;;;4983988;28;20064;-73
2023/12/11 07:54:20;;;;;;;15.68;5.25;;;;;;;;;;4975075;28;20021;-71
2023/12/11 07:56:47;;;;;;;13.90;5.70;;;;;;;;;;4987004;28;20056;-71
2023/12/11 07:59:13;;;;;;;18.38;6.47;;;;;;;;;;4981092;28;20022;-72
2023/12/11 08:01:39;;;;;;;;;;;;;;;;;;4984341;28;20045;-71
2023/12/11 08:04:05;;;;;;;19.55;6.45;;;;;;;;;;4979936;28;19918;-71
2023/12/11 08:06:33;;;;;;;17.13;6.90;;;;;;;;;;4976937;28;20010;-72
2023/12/11 08:09:00;;;;;;;16.52;6.10;;;;;;;;;;4981085;28;20399;-72
2023/12/11 08:11:28;;;;;;;17.27;6.00;;;;;;;;;;4983039;28;20022;-73
2023/12/11 08:13:54;;;;;;;15.43;5.82;;;;;;;;;;4980360;28;20049;-72
2023/12/11 08:16:20;;;;;;;;;;;;;;;;;;4977236;28;20484;-74
2023/12/11 08:18:48;;;;;;;15.35;5.90;;;;;;;;;;4983641;28;19913;-73
2023/12/11 08:21:16;;;;;;;15.15;5.70;;;;;;;;;;4981344;28;20038;-73
2023/12/11 08:23:47;;;;;;;11.93;5.38;;;;;;;;;;4983922;28;20159;-72
2023/12/11 08:26:18;;;;;;;16.95;5.43;;;;;;;;;;4978730;28;20063;-72
2023/12/11 08:28:44;;;;;;;14.82;5.55;;;;;;;;;;4980939;28;20433;-73
2023/12/11 08:31:11;;;;;;;16.17;6.15;;;;;;;;;;4977220;28;20088;-74
2023/12/11 08:33:37;;;;;;;15.00;6.35;;;;;;;;;;4984607;28;20046;-73
2023/12/11 08:36:04;;;;;;;16.42;6.45;;;;;;;;;;4980455;28;20042;-71
2023/12/11 08:38:30;;;;;;;16.20;6.10;;;;;;;;;;4986877;28;20839;-71
2023/12/11 08:40:57;;;;;;;14.85;5.95;;;;;;;;;;4979344;28;20044;-73
2023/12/11 08:43:23;;;;;;;15.02;5.55;;;;;;;;;;4977752;28;20461;-73
2023/12/11 08:45:50;;;;;;;14.13;5.20;;;;;;;;;;4982688;28;20556;-74
2023/12/11 08:48:16;;;;;;;15.45;6.47;;;;;;;;;;4979330;28;20031;-73
2023/12/11 08:50:42;;;;;;;13.65;5.40;;;;;;;;;;4983415;28;20065;-73
2023/12/11 08:53:08;;;;;;;13.60;5.25;;;;;;;;;;4980578;28;20401;-73
2023/12/11 08:55:34;;;;;;;13.77;5.47;;;;;;;;;;4980742;28;20057;-71
2023/12/11 08:58:01;;;;;;;13.82;7.40;;;;;;;;;;4979009;28;20040;-71
2023/12/11 09:00:27;;;;;;;21.95;12.88;;;;;;;;;;4979383;28;20044;-71
2023/12/11 09:02:53;;;;;;;18.52;9.35;;;;;;;;;;4985308;28;20033;-71
2023/12/11 09:05:19;;;;;;;14.20;7.40;;;;;;;;;;4978526;28;20036;-72
2023/12/11 09:07:45;;;;;;;15.23;6.70;;;;;;;;;;4981972;28;20022;-72
2023/12/11 09:10:11;;;;;;;13.93;5.95;;;;;;;;;;4978802;28;20112;-73
2023/12/11 09:12:38;;;;;;;13.13;5.30;;;;;;;;;;4984381;28;20053;-74
2023/12/11 09:15:05;;;;;;;14.77;7.50;;;;;;;;;;4989088;28;20037;-71
2023/12/11 09:17:31;;;;;;;15.10;6.20;;;;;;;;;;4986173;28;20022;-72
2023/12/11 09:19:58;;;;;;;12.90;6.13;;;;;;;;;;4981926;28;20033;-71
2023/12/11 09:22:25;;;;;;;14.10;5.70;;;;;;;;;;5000421;28;20489;-73
2023/12/11 09:24:51;;;;;;;12.50;4.70;;;;;;;;;;4988916;28;20439;-73
2023/12/11 09:27:17;;;;;;;13.65;4.75;;;;;;;;;;4984671;28;20704;-75
2023/12/11 09:29:43;;;;;;;12.95;4.88;;;;;;;;;;4986270;28;20038;-71
2023/12/11 09:32:09;;;;;;;15.80;8.50;;;;;;;;;;4985038;28;20048;-71
2023/12/11 09:34:36;;;;;;;12.43;5.68;;;;;;;;;;4986970;28;20488;-72
2023/12/11 09:37:02;;;;;;;14.38;5.55;;;;;;;;;;4983456;28;20104;-72
2023/12/11 09:39:29;;;;;;;14.07;5.30;;;;;;;;;;4989102;28;20052;-71
2023/12/11 09:41:55;;;;;;;14.10;6.18;;;;;;;;;;4986393;28;20042;-71
2023/12/11 09:44:21;;;;;;;15.60;6.55;;;;;;;;;;4983220;28;20034;-73
2023/12/11 09:46:53;;;;;;;15.70;6.60;;;;;;;;;;4988737;28;20030;-72
2023/12/11 09:49:19;;;;;;;14.55;6.70;;;;;;;;;;4985055;28;20065;-72
2023/12/11 09:51:45;;;;;;;14.45;5.90;;;;;;;;;;4987288;28;20046;-73
2023/12/11 09:54:12;;;;;;;15.77;5.60;;;;;;;;;;4982346;28;20045;-72
2023/12/11 09:56:39;;;;;;;12.90;5.40;;;;;;;;;;4985379;28;20512;-72
2023/12/11 09:59:09;;;;;;;11.75;4.82;;;;;;;;;;4985671;28;20034;-73
2023/12/11 10:01:35;;;;;;;13.88;4.60;;;;;;;;;;4987500;28;20555;-72
2023/12/11 10:04:01;;;;;;;15.07;6.40;;;;;;;;;;4983018;28;20080;-72
2023/12/11 10:06:28;;;;;;;12.70;5.28;;;;;;;;;;4986130;28;20785;-72
2023/12/11 10:08:54;;;;;;;12.30;4.80;;;;;;;;;;4987401;28;20146;-72
2023/12/11 10:11:22;;;;;;;11.15;4.60;;;;;;;;;;4984820;28;20030;-72
2023/12/11 10:13:49;;;;;;;11.32;3.67;;;;;;;;;;4984309;28;20080;-71
2023/12/11 10:16:28;;;;;;;10.07;3.30;;;;;;;;;;4983258;28;20046;-72
2023/12/11 10:18:55;;;;;;;12.23;3.08;;;;;;;;;;4985905;28;20026;-72
2023/12/11 10:21:24;;;;;;;11.05;2.80;;;;;;;;;;4983449;28;20727;-72
2023/12/11 10:24:07;;;;;;;10.57;2.38;;;;;;;;;;4982576;28;20503;-72
2023/12/11 10:26:33;;;;;;;10.13;2.80;;;;;;;;;;4986777;28;20030;-73
2023/12/11 10:29:17;;;;;;;11.35;3.08;;;;;;;;;;4984105;28;20037;-72
2023/12/11 10:31:43;;;;;;;9.60;2.80;;;;;;;;;;4988627;28;20027;-73
2023/12/11 10:34:09;;;;;;;11.00;3.08;;;;;;;;;;4981023;28;20806;-73
2023/12/11 10:36:36;;;;;;;11.10;3.55;;;;;;;;;;4987180;28;20038;-72
2023/12/11 10:39:08;;;;;;;10.13;2.95;;;;;;;;;;4984107;28;20033;-74
2023/12/11 10:41:34;;;;;;;12.23;3.55;;;;;;;;;;4984765;28;20840;-72
2023/12/11 10:44:01;;;;;;;9.85;3.35;;;;;;;;;;4985167;28;20516;-71
2023/12/11 10:46:27;;;;;;;12.02;3.53;;;;;;;;;;4985903;28;20560;-72
2023/12/11 10:48:54;;;;;;;10.70;3.13;;;;;;;;;;4984816;28;20030;-72
2023/12/11 10:51:24;;;;;;;11.43;3.28;;;;;;;;;;4985180;28;20034;-74
2023/12/11 10:53:50;;;;;;;10.52;2.70;;;;;;;;;;4988543;28;20033;-72
2023/12/11 10:56:16;;;;;;;10.45;3.10;;;;;;;;;;4985819;28;20125;-72
2023/12/11 10:58:42;;;;;;;11.35;3.47;;;;;;;;;;4986307;28;20026;-73
2023/12/11 11:01:12;;;;;;;9.50;2.50;;;;;;;;;;4983161;28;20419;-71
2023/12/11 11:03:39;;;;;;;9.35;2.40;;;;;;;;;;4985049;28;20404;-72
2023/12/11 11:06:05;;;;;;;8.48;2.65;;;;;;;;;;4981334;28;21892;-72
2023/12/11 11:08:37;;;;;;;8.00;2.35;;;;;;;;;;4986929;28;20026;-73
2023/12/11 11:11:04;;;;;;;8.70;2.55;;;;;;;;;;4983569;28;20532;-72
2023/12/11 11:13:33;;;;;;;10.18;2.47;;;;;;;;;;4987066;28;20041;-72
2023/12/11 11:15:59;;;;;;;8.80;2.42;;;;;;;;;;4979933;28;20113;-72
2023/12/11 11:18:25;;;;;;;9.60;2.75;;;;;;;;;;4986359;28;20044;-73
2023/12/11 11:21:09;;;;;;;9.82;2.40;;;;;;;;;;4987875;28;20436;-73
2023/12/11 11:23:42;;;;;;;8.55;2.83;;;;;;;;;;4985985;28;20030;-73
2023/12/11 11:26:27;;;;;;;9.23;3.03;;;;;;;;;;4986910;28;20022;-73
2023/12/11 11:28:53;;;;;;;7.38;2.45;;;;;;;;;;4984806;28;20404;-72
2023/12/11 11:31:19;;;;;;;10.00;2.72;;;;;;;;;;4983493;28;20029;-72
2023/12/11 11:33:52;;;;;;;8.23;2.60;;;;;;;;;;4981654;28;20048;-73
2023/12/11 11:36:20;;;;;;;10.85;2.78;;;;;;;;;;4983266;28;23491;-72
2023/12/11 11:38:57;;;;;;;10.38;2.85;;;;;;;;;;4984697;28;20048;-72
2023/12/11 11:41:24;;;;;;;7.82;2.40;;;;;;;;;;4985369;28;20104;-73
2023/12/11 11:44:05;;;;;;;10.02;2.70;;;;;;;;;;4984071;28;20023;-73
2023/12/11 11:46:50;;;;;;;9.75;2.72;;;;;;;;;;4983957;28;20040;-72
2023/12/11 11:49:32;;;;;;;9.55;3.10;;;;;;;;;;4983691;28;20444;-71
2023/12/11 11:52:00;;;;;;;10.43;3.38;;;;;;;;;;4985702;28;20041;-72
2023/12/11 11:54:28;;;;;;;10.90;3.00;;;;;;;;;;4984461;28;20038;-73
2023/12/11 11:56:54;;;;;;;10.63;3.13;;;;;;;;;;4983920;28;20052;-71
2023/12/11 11:59:21;;;;;;;10.18;3.40;;;;;;;;;;4984543;28;20104;-72
2023/12/11 12:01:54;;;;;;;10.82;3.20;;;;;;;;;;4982961;28;20041;-72
2023/12/11 12:04:34;;;;;;;11.88;3.53;;;;;;;;;;4980520;28;20025;-72
2023/12/11 12:07:01;;;;;;;9.43;3.08;;;;;;;;;;4982063;28;20560;-72
2023/12/11 12:09:28;;;;;;;10.05;3.45;;;;;;;;;;4984191;28;20034;-72
2023/12/11 12:11:54;;;;;;;11.23;3.58;;;;;;;;;;4985943;28;20022;-72
2023/12/11 12:14:25;;;;;;;12.40;3.80;;;;;;;;;;4984678;28;20041;-72
2023/12/11 12:16:52;;;;;;;9.23;3.15;;;;;;;;;;4985229;28;20031;-72
2023/12/11 12:19:30;;;;;;;9.50;2.80;;;;;;;;;;4983383;28;20351;-73
2023/12/11 12:21:56;;;;;;;11.25;3.15;;;;;;;;;;4980509;28;20524;-73
2023/12/11 12:24:22;;;;;;;8.40;3.05;;;;;;;;;;4980188;28;20310;-72
2023/12/11 12:26:57;;;;;;;9.52;3.05;;;;;;;;;;4982987;28;20478;-72
2023/12/11 12:29:23;;;;;;;9.90;3.50;;;;;;;;;;4980998;28;20037;-72
2023/12/11 12:31:49;;;;;;;10.95;3.00;;;;;;;;;;4984623;28;20030;-72
2023/12/11 12:34:17;;;;;;;9.20;3.45;;;;;;;;;;4977973;28;20038;-72
2023/12/11 12:36:43;;;;;;;10.27;3.45;;;;;;;;;;4984365;28;20018;-71
2023/12/11 12:39:12;;;;;;;11.73;4.10;;;;;;;;;;4980496;28;20026;-72
2023/12/11 12:41:38;;;;;;;10.38;3.45;;;;;;;;;;4982906;28;20018;-72
2023/12/11 12:44:04;;;;;;;10.25;3.85;;;;;;;;;;4982494;28;20435;-73
2023/12/11 12:46:40;;;;;;;10.10;3.22;;;;;;;;;;4990734;28;20034;-72
2023/12/11 12:49:07;;;;;;;9.00;3.40;;;;;;;;;;4985356;28;20068;-72
2023/12/11 12:51:43;;;;;;;10.18;3.40;;;;;;;;;;4987985;28;20049;-72
2023/12/11 12:54:10;;;;;;;11.02;3.90;;;;;;;;;;4983606;28;20033;-73
2023/12/11 12:56:37;;;;;;;12.30;3.88;;;;;;;;;;4987995;28;20037;-72
2023/12/11 12:59:03;;;;;;;10.88;4.22;;;;;;;;;;4984786;28;20778;-72
2023/12/11 13:01:41;;;;;;;10.45;3.85;;;;;;;;;;4984858;28;20029;-71
2023/12/11 13:04:08;;;;;;;10.93;3.60;;;;;;;;;;4984179;28;20096;-71
2023/12/11 13:06:35;;;;;;;11.38;4.07;;;;;;;;;;4985689;28;20072;-71
2023/12/11 13:09:01;;;;;;;9.50;3.50;;;;;;;;;;4985846;28;20018;-72
2023/12/11 13:11:40;;;;;;;10.13;3.90;;;;;;;;;;4987053;28;20029;-71
2023/12/11 13:14:07;;;;;;;45.13;40.45;;;;;;;;;;4984514;28;20053;-73
2023/12/11 13:16:34;;;;;;;19.85;16.30;;;;;;;;;;4983119;28;20045;-72
2023/12/11 13:19:01;;;;;;;12.38;5.70;;;;;;;;;;4980852;28;20030;-72
2023/12/11 13:21:27;;;;;;;11.57;4.45;;;;;;;;;;4983316;28;20105;-73
2023/12/11 13:23:55;;;;;;;9.82;5.13;;;;;;;;;;4983949;28;20058;-74
2023/12/11 13:26:21;;;;;;;9.55;3.83;;;;;;;;;;4982070;28;20524;-73
2023/12/11 13:28:47;;;;;;;9.73;3.97;;;;;;;;;;4987493;28;20034;-73
2023/12/11 13:31:13;;;;;;;12.38;4.10;;;;;;;;;;4984224;28;20393;-73
2023/12/11 13:33:40;;;;;;;15.75;4.90;;;;;;;;;;4987652;28;20030;-73
2023/12/11 13:36:06;;;;;;;16.52;4.07;;;;;;;;;;4979420;28;20100;-73
2023/12/11 13:38:32;;;;;;;15.32;4.68;;;;;;;;;;4985352;28;20099;-73
2023/12/11 13:40:58;;;;;;;18.58;5.13;;;;;;;;;;4986993;28;20037;-74
2023/12/11 13:43:24;;;;;;;14.35;4.22;;;;;;;;;;4981808;28;20073;-73
2023/12/11 13:45:51;;;;;;;19.83;4.97;;;;;;;;;;4989304;28;20464;-72
2023/12/11 13:48:17;;;;;;;20.20;5.00;;;;;;;;;;4985795;28;20037;-73
2023/12/11 13:50:43;;;;;;;10.82;3.67;;;;;;;;;;4982001;28;20594;-73
2023/12/11 13:53:10;;;;;;;11.65;3.63;;;;;;;;;;4985665;28;20038;-73
2023/12/11 13:55:36;;;;;;;11.73;3.47;;;;;;;;;;4983768;28;20631;-74
2023/12/11 13:58:02;;;;;;;10.18;2.97;;;;;;;;;;4984674;28;20488;-73
2023/12/11 14:00:28;;;;;;;10.75;3.10;;;;;;;;;;4984200;28;20033;-73
2023/12/11 14:02:54;;;;;;;7.72;2.38;;;;;;;;;;4985709;28;20673;-74
2023/12/11 14:05:20;;;;;;;9.60;2.60;;;;;;;;;;4980816;28;20439;-74
2023/12/11 14:07:46;;;;;;;11.13;2.95;;;;;;;;;;4985360;28;20642;-73
2023/12/11 14:10:12;;;;;;;7.28;2.35;;;;;;;;;;4984685;28;20225;-73
2023/12/11 14:12:39;;;;;;;8.30;2.55;;;;;;;;;;4990385;28;20128;-73
2023/12/11 14:15:06;;;;;;;8.30;2.33;;;;;;;;;;4988012;28;20034;-74
2023/12/11 14:17:32;;;;;;;11.15;2.53;;;;;;;;;;4988857;28;20124;-74
2023/12/11 14:19:59;;;;;;;7.53;2.10;;;;;;;;;;4984565;28;20034;-74
2023/12/11 14:22:25;;;;;;;6.82;2.10;;;;;;;;;;4983761;28;20033;-74
2023/12/11 14:24:52;;;;;;;9.20;2.38;;;;;;;;;;4988526;28;20030;-73
2023/12/11 14:27:18;;;;;;;6.97;2.05;;;;;;;;;;4984550;28;20062;-74
2023/12/11 14:29:45;;;;;;;8.20;1.80;;;;;;;;;;4988354;28;20026;-74
2023/12/11 14:32:11;;;;;;;7.53;1.92;;;;;;;;;;4983677;28;20037;-74
2023/12/11 14:34:41;;;;;;;7.40;1.65;;;;;;;;;;4985389;28;20030;-74
2023/12/11 14:37:09;;;;;;;6.40;1.77;;;;;;;;;;4983991;28;20034;-73
2023/12/11 14:39:36;;;;;;;8.10;1.95;;;;;;;;;;4986024;28;20034;-73
2023/12/11 14:42:02;;;;;;;7.13;1.80;;;;;;;;;;4984248;28;20587;-73